createdAt,value
2023-04-11T00:01:02.026Z,10.26
2023-04-11T00:03:29.172Z,10.30
2023-04-11T00:05:56.453Z,10.29
2023-04-11T00:08:23.421Z,10.28
2023-04-11T00:10:50.512Z,10.15
2023-04-11T00:13:19.866Z,10.08
2023-04-11T00:15:47.757Z,10.07
2023-04-11T00:18:15.025Z,10.37
2023-04-11T00:20:42.025Z,10.48
2023-04-11T00:23:09.067Z,10.34
2023-04-11T00:25:37.360Z,10.18
2023-04-11T00:28:04.699Z,10.19
2023-04-11T00:30:31.720Z,10.14
2023-04-11T00:32:58.755Z,10.21
2023-04-11T00:35:25.965Z,10.21
2023-04-11T00:37:56.163Z,10.16
2023-04-11T00:40:23.335Z,10.10
2023-04-11T00:42:50.500Z,10.11
2023-04-11T00:45:17.516Z,10.03
2023-04-11T00:47:44.723Z,10.08
2023-04-11T00:50:14.167Z,10.12
2023-04-11T00:52:42.814Z,10.13
2023-04-11T00:55:10.818Z,9.95
2023-04-11T00:57:38.524Z,10.08
2023-04-11T01:00:10.221Z,9.87
2023-04-11T01:02:45.174Z,9.93
2023-04-11T01:05:14.874Z,9.93
2023-04-11T01:07:46.984Z,9.76
2023-04-11T01:10:15.800Z,9.89
2023-04-11T01:12:46.055Z,9.82
2023-04-11T01:15:13.069Z,9.76
2023-04-11T01:17:41.829Z,9.66
2023-04-11T01:20:10.309Z,9.68
2023-04-11T01:22:38.671Z,9.74
2023-04-11T01:25:06.344Z,9.64
2023-04-11T01:27:34.213Z,9.42
2023-04-11T01:30:01.973Z,9.54
2023-04-11T01:32:29.000Z,9.57
2023-04-11T01:34:58.759Z,9.46
2023-04-11T01:37:25.902Z,9.42
2023-04-11T01:39:53.201Z,9.38
2023-04-11T01:42:21.942Z,9.39
2023-04-11T01:44:53.560Z,9.57
2023-04-11T01:47:20.635Z,9.40
2023-04-11T01:49:47.638Z,9.34
2023-04-11T01:52:14.591Z,9.45
2023-04-11T01:54:41.557Z,9.32
2023-04-11T01:57:08.568Z,9.44
2023-04-11T01:59:35.741Z,9.33
2023-04-11T02:02:02.952Z,9.35
2023-04-11T02:04:30.342Z,9.29
2023-04-11T02:06:57.366Z,9.10
2023-04-11T02:09:24.459Z,9.21
2023-04-11T02:11:51.457Z,9.15
2023-04-11T02:14:20.447Z,9.11
2023-04-11T02:16:56.146Z,9.12
2023-04-11T02:19:26.259Z,9.08
2023-04-11T02:21:53.444Z,9.11
2023-04-11T02:24:20.474Z,9.08
2023-04-11T02:26:47.510Z,9.08
2023-04-11T02:29:14.549Z,9.13
2023-04-11T02:31:41.558Z,9.15
2023-04-11T02:34:09.048Z,9.20
2023-04-11T02:36:36.601Z,9.06
2023-04-11T02:39:03.680Z,9.16
2023-04-11T02:41:30.854Z,9.16
2023-04-11T02:43:57.840Z,9.18
2023-04-11T02:46:25.049Z,9.18
2023-04-11T02:48:52.065Z,9.16
2023-04-11T02:51:19.024Z,9.25
2023-04-11T02:53:46.170Z,9.24
2023-04-11T02:56:18.754Z,9.28
2023-04-11T02:58:47.043Z,9.18
2023-04-11T03:01:17.260Z,9.22
2023-04-11T03:03:45.207Z,9.15
2023-04-11T03:06:12.328Z,9.19
2023-04-11T03:08:39.322Z,9.22
2023-04-11T03:11:06.676Z,9.17
2023-04-11T03:13:33.864Z,9.08
2023-04-11T03:16:00.937Z,9.00
2023-04-11T03:18:28.026Z,8.96
2023-04-11T03:20:56.145Z,8.84
2023-04-11T03:23:23.310Z,8.82
2023-04-11T03:25:50.995Z,8.80
2023-04-11T03:28:18.064Z,8.76
2023-04-11T03:30:46.547Z,8.85
2023-04-11T03:33:13.589Z,8.74
2023-04-11T03:35:40.667Z,8.85
2023-04-11T03:38:07.744Z,8.95
2023-04-11T03:40:35.050Z,8.83
2023-04-11T03:43:04.317Z,8.80
2023-04-11T03:45:31.809Z,8.81
2023-04-11T03:47:58.879Z,8.94
2023-04-11T03:50:26.089Z,8.77
2023-04-11T03:52:53.120Z,8.93
2023-04-11T03:55:20.518Z,8.86
2023-04-11T03:57:47.645Z,8.76
2023-04-11T04:00:14.914Z,8.95
2023-04-11T04:02:42.171Z,8.88
2023-04-11T04:05:09.589Z,8.84
2023-04-11T04:07:36.660Z,8.84
2023-04-11T04:10:04.985Z,8.90
2023-04-11T04:12:32.162Z,8.89
2023-04-11T04:14:59.231Z,8.82
2023-04-11T04:17:27.344Z,8.92
2023-04-11T04:19:54.361Z,10.03
2023-04-11T04:22:22.382Z,10.98
2023-04-11T04:24:49.397Z,11.61
2023-04-11T04:27:19.249Z,12.13
2023-04-11T04:29:48.418Z,13.08
2023-04-11T04:32:23.223Z,14.14
2023-04-11T04:34:55.299Z,14.45
2023-04-11T04:37:25.996Z,15.27
2023-04-11T04:40:02.237Z,15.67
2023-04-11T04:42:30.258Z,16.08
2023-04-11T04:44:57.602Z,16.42
2023-04-11T04:47:29.707Z,18.05
2023-04-11T04:49:57.554Z,18.84
2023-04-11T04:52:29.164Z,18.89
2023-04-11T04:54:58.099Z,19.74
2023-04-11T04:57:27.247Z,20.03
2023-04-11T04:59:56.127Z,20.18
2023-04-11T05:02:23.358Z,21.17
2023-04-11T05:04:50.549Z,23.45
2023-04-11T05:07:18.380Z,24.00
2023-04-11T05:09:45.444Z,23.85
2023-04-11T05:12:13.970Z,22.10
2023-04-11T05:14:41.161Z,22.16
2023-04-11T05:17:08.159Z,23.20
2023-04-11T05:19:35.466Z,22.04
2023-04-11T05:22:02.455Z,21.76
2023-04-11T05:24:29.485Z,24.46
2023-04-11T05:26:56.741Z,26.24
2023-04-11T05:29:23.791Z,26.43
2023-04-11T05:31:50.938Z,26.20
2023-04-11T05:34:17.922Z,25.92
2023-04-11T05:36:47.229Z,24.67
2023-04-11T05:39:14.251Z,26.21
2023-04-11T05:41:41.977Z,26.74
2023-04-11T05:44:09.011Z,27.03
2023-04-11T05:46:37.312Z,26.75
2023-04-11T05:49:04.427Z,26.58
2023-04-11T05:51:31.729Z,28.34
2023-04-11T05:53:58.995Z,30.73
2023-04-11T05:56:26.140Z,30.34
2023-04-11T05:58:53.090Z,31.17
2023-04-11T06:01:20.132Z,31.38
2023-04-11T06:03:48.083Z,30.34
2023-04-11T06:06:15.819Z,30.47
2023-04-11T06:08:43.088Z,31.49
2023-04-11T06:11:11.308Z,31.91
2023-04-11T06:13:38.359Z,30.53
2023-04-11T06:16:06.922Z,31.72
2023-04-11T06:18:34.100Z,31.12
2023-04-11T06:21:01.213Z,30.63
2023-04-11T06:23:28.257Z,32.01
2023-04-11T06:25:55.366Z,33.33
2023-04-11T06:28:22.381Z,33.19
2023-04-11T06:30:49.483Z,33.20
2023-04-11T06:33:16.533Z,33.13
2023-04-11T06:35:43.576Z,33.60
2023-04-11T06:38:10.654Z,32.68
2023-04-11T06:40:37.672Z,34.77
2023-04-11T06:43:04.741Z,34.83
2023-04-11T06:45:31.799Z,34.37
2023-04-11T06:47:58.846Z,36.37
2023-04-11T06:50:26.076Z,35.23
2023-04-11T06:52:53.046Z,36.11
2023-04-11T06:55:21.101Z,35.77
2023-04-11T06:57:48.044Z,35.72
2023-04-11T07:00:16.339Z,35.67
2023-04-11T07:02:44.798Z,34.25
2023-04-11T07:05:12.251Z,34.26
2023-04-11T07:07:39.768Z,33.77
2023-04-11T07:10:07.797Z,33.35
2023-04-11T07:12:34.811Z,33.21
2023-04-11T07:15:03.824Z,32.58
2023-04-11T07:17:31.610Z,32.86
2023-04-11T07:19:58.612Z,31.61
2023-04-11T07:22:25.807Z,33.36
2023-04-11T07:24:55.338Z,32.58
2023-04-11T07:27:23.470Z,31.30
2023-04-11T07:29:50.741Z,32.05
2023-04-11T07:32:17.938Z,31.96
2023-04-11T07:34:44.946Z,33.20
2023-04-11T07:37:12.567Z,33.03
2023-04-11T07:39:40.774Z,33.12
2023-04-11T07:42:08.133Z,32.80
2023-04-11T07:44:35.358Z,30.87
2023-04-11T07:47:02.359Z,31.01
2023-04-11T07:49:29.646Z,30.58
2023-04-11T07:51:56.640Z,30.58
2023-04-11T07:54:25.321Z,30.34
2023-04-11T07:56:52.431Z,28.35
2023-04-11T07:59:19.429Z,28.30
2023-04-11T08:01:46.581Z,28.22
2023-04-11T08:04:14.309Z,28.67
2023-04-11T08:06:41.552Z,28.27
2023-04-11T08:09:08.547Z,28.24
2023-04-11T08:11:35.641Z,28.98
2023-04-11T08:14:03.270Z,28.95
2023-04-11T08:16:30.311Z,29.99
2023-04-11T08:18:59.253Z,29.38
2023-04-11T08:21:26.755Z,28.21
2023-04-11T08:23:53.859Z,26.54
2023-04-11T08:26:21.271Z,25.94
2023-04-11T08:28:48.360Z,24.37
2023-04-11T08:31:15.586Z,23.66
2023-04-11T08:33:42.787Z,23.42
2023-04-11T08:36:11.123Z,23.84
2023-04-11T08:38:39.645Z,23.58
2023-04-11T08:41:06.991Z,22.19
2023-04-11T08:43:38.993Z,21.42
2023-04-11T08:46:12.065Z,20.80
2023-04-11T08:48:39.472Z,21.70
2023-04-11T08:51:06.941Z,21.95
2023-04-11T08:53:37.984Z,22.44
2023-04-11T08:56:05.224Z,23.10
2023-04-11T08:58:32.349Z,22.78
2023-04-11T09:01:29.939Z,21.93
2023-04-11T09:03:59.396Z,22.47
2023-04-11T09:06:32.736Z,21.40
2023-04-11T09:09:02.416Z,21.43
2023-04-11T09:11:29.493Z,21.58
2023-04-11T09:14:10.754Z,20.89
2023-04-11T09:16:53.029Z,20.78
2023-04-11T09:19:29.270Z,20.47
2023-04-11T09:22:04.165Z,19.76
2023-04-11T09:24:33.386Z,19.90
2023-04-11T09:27:16.950Z,19.91
2023-04-11T09:29:48.944Z,20.29
2023-04-11T09:32:34.164Z,19.94
2023-04-11T09:35:12.775Z,20.57
2023-04-11T09:37:56.030Z,20.84
2023-04-11T09:40:26.347Z,21.54
2023-04-11T09:43:04.264Z,21.24
2023-04-11T09:45:38.247Z,20.54
2023-04-11T09:48:09.018Z,20.49
2023-04-11T09:50:38.575Z,20.70
2023-04-11T09:53:06.967Z,21.01
2023-04-11T09:55:33.954Z,20.76
2023-04-11T09:58:01.409Z,21.36
2023-04-11T10:00:30.281Z,21.68
2023-04-11T10:02:57.528Z,20.75
2023-04-11T10:05:30.456Z,20.58
2023-04-11T10:08:14.640Z,20.67
2023-04-11T10:10:44.126Z,20.62
2023-04-11T10:13:41.217Z,20.35
2023-04-11T10:16:16.543Z,20.06
2023-04-11T10:18:55.214Z,19.37
2023-04-11T10:21:42.858Z,19.82
2023-04-11T10:24:18.063Z,19.46
2023-04-11T10:26:53.644Z,19.26
2023-04-11T10:29:40.539Z,18.77
2023-04-11T10:32:16.691Z,18.96
2023-04-11T10:34:52.470Z,18.90
2023-04-11T10:37:40.040Z,18.31
2023-04-11T10:40:11.447Z,18.33
2023-04-11T10:42:46.828Z,18.27
2023-04-11T10:45:30.460Z,17.96
2023-04-11T10:47:57.469Z,18.43
2023-04-11T10:50:27.235Z,18.66
2023-04-11T10:52:59.409Z,18.96
2023-04-11T10:55:29.435Z,19.40
2023-04-11T10:58:16.811Z,18.90
2023-04-11T11:00:49.829Z,19.08
2023-04-11T11:03:34.152Z,18.66
2023-04-11T11:06:09.437Z,18.27
2023-04-11T11:08:43.449Z,17.92
2023-04-11T11:11:11.746Z,17.93
2023-04-11T11:13:56.219Z,17.81
2023-04-11T11:16:26.513Z,17.87
2023-04-11T11:18:56.346Z,17.62
2023-04-11T11:21:28.163Z,17.53
2023-04-11T11:24:02.806Z,17.69
2023-04-11T11:26:36.749Z,17.56
2023-04-11T11:29:05.796Z,17.62
2023-04-11T11:31:42.659Z,18.06
2023-04-11T11:36:46.669Z,18.44
2023-04-11T11:39:14.302Z,18.26
2023-04-11T11:41:41.770Z,18.21
2023-04-11T11:44:23.949Z,18.16
2023-04-11T11:47:17.990Z,18.15
2023-04-11T11:49:52.958Z,18.10
2023-04-11T11:52:40.571Z,18.07
2023-04-11T11:55:19.521Z,18.29
2023-04-11T11:57:47.885Z,18.29
2023-04-11T12:00:23.477Z,18.15
2023-04-11T12:02:54.273Z,18.14
2023-04-11T12:05:24.071Z,18.11
2023-04-11T12:07:54.981Z,17.91
2023-04-11T12:10:22.018Z,17.76
2023-04-11T12:12:53.334Z,17.57
2023-04-11T12:15:24.160Z,17.55
2023-04-11T12:17:53.798Z,17.78
2023-04-11T12:20:26.416Z,17.79
2023-04-11T12:22:55.056Z,17.66
2023-04-11T12:25:23.088Z,17.84
2023-04-11T12:27:50.248Z,17.63
2023-04-11T12:30:17.347Z,17.59
2023-04-11T12:32:45.832Z,17.52
2023-04-11T12:35:13.662Z,17.51
2023-04-11T12:37:41.263Z,17.41
2023-04-11T12:40:11.270Z,17.67
2023-04-11T12:42:53.289Z,17.46
2023-04-11T12:45:23.149Z,17.35
2023-04-11T12:47:50.281Z,17.32
2023-04-11T12:50:17.429Z,17.23
2023-04-11T12:52:44.772Z,17.21
2023-04-11T12:55:13.607Z,17.27
2023-04-11T12:57:41.583Z,17.27
2023-04-11T13:00:11.588Z,17.03
2023-04-11T13:02:44.019Z,17.17
2023-04-11T13:05:16.498Z,16.82
2023-04-11T13:07:45.056Z,16.93
2023-04-11T13:10:14.116Z,16.91
2023-04-11T13:12:44.497Z,16.94
2023-04-11T13:15:13.872Z,16.87
2023-04-11T13:17:41.069Z,17.08
2023-04-11T13:20:10.680Z,17.07
2023-04-11T13:22:44.774Z,17.07
2023-04-11T13:25:12.493Z,16.80
2023-04-11T13:27:41.607Z,16.98
2023-04-11T13:30:10.650Z,17.01
2023-04-11T13:32:37.833Z,17.19
2023-04-11T13:35:05.905Z,17.18
2023-04-11T13:37:33.177Z,17.20
2023-04-11T13:40:00.581Z,17.11
2023-04-11T13:42:27.570Z,17.13
2023-04-11T13:44:54.665Z,17.14
2023-04-11T13:47:21.742Z,17.16
2023-04-11T13:49:48.750Z,17.08
2023-04-11T13:52:15.763Z,17.18
2023-04-11T13:54:42.815Z,17.01
2023-04-11T13:57:09.875Z,17.42
2023-04-11T13:59:36.940Z,17.40
2023-04-11T14:02:04.171Z,17.13
2023-04-11T14:04:31.524Z,17.09
2023-04-11T14:06:58.578Z,17.45
2023-04-11T14:09:25.616Z,17.30
2023-04-11T14:11:52.721Z,17.34
2023-04-11T14:14:19.842Z,17.24
2023-04-11T14:16:46.988Z,17.54
2023-04-11T14:19:14.878Z,17.24
2023-04-11T14:21:42.089Z,17.19
2023-04-11T14:24:09.706Z,17.26
2023-04-11T14:26:37.241Z,17.39
2023-04-11T14:29:04.795Z,17.58
2023-04-11T14:31:32.153Z,17.60
2023-04-11T14:33:59.475Z,17.72
2023-04-11T14:36:27.998Z,17.38
2023-04-11T14:38:55.358Z,17.42
2023-04-11T14:41:22.489Z,17.08
2023-04-11T14:43:49.535Z,16.63
2023-04-11T14:46:16.727Z,16.84
2023-04-11T14:48:43.808Z,16.84
2023-04-11T14:51:10.803Z,17.00
2023-04-11T14:53:37.998Z,17.41
2023-04-11T14:56:06.589Z,16.91
2023-04-11T14:58:34.172Z,17.00
2023-04-11T15:01:01.400Z,16.88
2023-04-11T15:03:28.638Z,17.15
2023-04-11T15:05:56.010Z,16.86
2023-04-11T15:08:23.050Z,16.62
2023-04-11T15:10:54.121Z,16.78
2023-04-11T15:13:22.974Z,16.61
2023-04-11T15:15:50.103Z,16.76
2023-04-11T15:18:26.938Z,16.69
2023-04-11T15:20:58.823Z,16.50
2023-04-11T15:23:26.619Z,16.39
2023-04-11T15:25:58.512Z,16.60
2023-04-11T15:28:27.247Z,16.33
2023-04-11T15:30:55.487Z,16.40
2023-04-11T15:33:23.987Z,16.21
2023-04-11T15:35:53.708Z,16.24
2023-04-11T15:38:21.884Z,16.31
2023-04-11T15:40:54.490Z,16.24
2023-04-11T15:43:23.289Z,16.35
2023-04-11T15:45:52.309Z,16.22
2023-04-11T15:48:19.434Z,16.16
2023-04-11T15:50:46.605Z,16.31
2023-04-11T15:53:13.914Z,16.15
2023-04-11T15:55:42.965Z,16.15
2023-04-11T15:58:10.411Z,16.12
2023-04-11T16:00:39.041Z,16.14
2023-04-11T16:03:08.501Z,16.08
2023-04-11T16:05:38.318Z,16.16
2023-04-11T16:08:06.532Z,16.11
2023-04-11T16:10:33.984Z,16.08
2023-04-11T16:13:02.609Z,16.16
2023-04-11T16:15:29.681Z,16.05
2023-04-11T16:17:56.742Z,15.95
2023-04-11T16:20:23.770Z,15.88
2023-04-11T16:22:50.771Z,15.96
2023-04-11T16:25:21.020Z,15.85
2023-04-11T16:27:49.978Z,15.86
2023-04-11T16:30:17.335Z,15.75
2023-04-11T16:32:44.553Z,15.72
2023-04-11T16:35:12.023Z,15.88
2023-04-11T16:37:39.006Z,15.52
2023-04-11T16:40:12.073Z,15.54
2023-04-11T16:42:39.839Z,15.48
2023-04-11T16:45:08.945Z,15.46
2023-04-11T16:47:36.304Z,15.54
2023-04-11T16:50:05.353Z,15.45
2023-04-11T16:52:32.783Z,15.37
2023-04-11T16:54:59.762Z,15.35
2023-04-11T16:57:27.567Z,15.43
2023-04-11T16:59:54.706Z,15.31
2023-04-11T17:02:21.951Z,15.26
2023-04-11T17:04:49.063Z,15.20
2023-04-11T17:07:16.319Z,15.05
2023-04-11T17:09:43.390Z,15.01
2023-04-11T17:12:10.582Z,15.10
2023-04-11T17:14:37.581Z,15.21
2023-04-11T17:17:04.601Z,15.11
2023-04-11T17:19:31.718Z,15.15
2023-04-11T17:21:58.789Z,15.09
2023-04-11T17:24:25.942Z,15.06
2023-04-11T17:26:53.365Z,15.00
2023-04-11T17:29:20.357Z,14.99
2023-04-11T17:31:47.957Z,15.05
2023-04-11T17:34:15.046Z,15.03
2023-04-11T17:36:43.039Z,15.01
2023-04-11T17:39:17.089Z,15.18
2023-04-11T17:41:45.690Z,14.95
2023-04-11T17:44:13.655Z,14.92
2023-04-11T17:46:41.226Z,14.91
2023-04-11T17:49:08.321Z,14.85
2023-04-11T17:51:38.928Z,14.67
2023-04-11T17:55:23.254Z,14.71
2023-04-11T17:57:51.291Z,14.55
2023-04-11T18:00:24.129Z,14.44
2023-04-11T18:02:54.921Z,14.44
2023-04-11T18:05:25.858Z,14.45
2023-04-11T18:07:58.126Z,14.52
2023-04-11T18:10:27.427Z,14.17
2023-04-11T18:12:56.565Z,14.16
2023-04-11T18:15:24.841Z,14.25
2023-04-11T18:17:52.837Z,14.47
2023-04-11T18:20:20.155Z,14.20
2023-04-11T18:22:51.756Z,14.44
2023-04-11T18:25:18.780Z,14.16
2023-04-11T18:27:47.101Z,14.30
2023-04-11T18:30:15.976Z,14.23
2023-04-11T18:32:49.390Z,14.11
2023-04-11T18:35:17.436Z,14.07
2023-04-11T18:37:44.741Z,14.12
2023-04-11T18:40:14.177Z,13.92
2023-04-11T18:42:49.371Z,14.03
2023-04-11T18:45:20.501Z,14.02
2023-04-11T18:47:47.853Z,13.88
2023-04-11T18:50:15.851Z,13.69
2023-04-11T18:52:44.923Z,13.71
2023-04-11T18:55:12.492Z,14.03
2023-04-11T18:57:39.877Z,13.73
2023-04-11T19:00:18.077Z,13.65
2023-04-11T19:02:46.883Z,13.75
2023-04-11T19:05:14.709Z,13.65
2023-04-11T19:07:43.515Z,13.63
2023-04-11T19:10:13.303Z,13.46
2023-04-11T19:12:41.119Z,13.50
2023-04-11T19:15:09.385Z,13.45
2023-04-11T19:17:38.489Z,13.37
2023-04-11T19:20:13.416Z,13.28
2023-04-11T19:22:41.032Z,13.36
2023-04-11T19:25:12.416Z,13.28
2023-04-11T19:27:41.988Z,13.33
2023-04-11T19:30:11.549Z,13.25
2023-04-11T19:32:41.071Z,13.10
2023-04-11T19:35:10.884Z,13.28
2023-04-11T19:37:38.084Z,13.02
2023-04-11T19:40:07.400Z,13.13
2023-04-11T19:42:37.182Z,12.93
2023-04-11T19:45:05.192Z,12.92
2023-04-11T19:47:32.888Z,13.00
2023-04-11T19:50:01.060Z,13.06
2023-04-11T19:52:28.905Z,12.86
2023-04-11T19:54:56.595Z,12.80
2023-04-11T19:57:26.534Z,12.74
2023-04-11T19:59:53.626Z,12.70
2023-04-11T20:02:21.189Z,12.70
2023-04-11T20:04:49.457Z,12.74
2023-04-11T20:07:16.740Z,12.55
2023-04-11T20:09:43.839Z,12.53
2023-04-11T20:12:11.195Z,12.52
2023-04-11T20:14:38.347Z,12.62
2023-04-11T20:17:06.638Z,12.45
2023-04-11T20:19:37.709Z,12.58
2023-04-11T20:22:05.038Z,12.58
2023-04-11T20:24:32.097Z,12.69
2023-04-11T20:26:59.150Z,12.66
2023-04-11T20:29:32.905Z,12.59
2023-04-11T20:32:00.234Z,12.56
2023-04-11T20:34:27.290Z,12.58
2023-04-11T20:36:54.310Z,12.61
2023-04-11T20:39:22.053Z,12.50
2023-04-11T20:41:49.998Z,12.51
2023-04-11T20:44:23.607Z,12.53
2023-04-11T20:46:51.357Z,12.65
2023-04-11T20:49:18.394Z,12.82
2023-04-11T20:51:49.772Z,12.67
2023-04-11T20:54:16.760Z,12.98
2023-04-11T20:56:44.153Z,12.74
2023-04-11T20:59:12.452Z,12.78
2023-04-11T21:01:40.593Z,12.73
2023-04-11T21:04:09.665Z,12.64
2023-04-11T21:06:37.054Z,12.63
2023-04-11T21:09:05.363Z,12.62
2023-04-11T21:11:33.244Z,12.53
2023-04-11T21:14:00.509Z,12.70
2023-04-11T21:16:27.533Z,12.64
2023-04-11T21:18:54.565Z,12.60
2023-04-11T21:21:21.545Z,12.64
2023-04-11T21:23:48.662Z,12.75
2023-04-11T21:26:15.707Z,12.68
2023-04-11T21:28:42.663Z,12.59
2023-04-11T21:31:09.790Z,12.58
2023-04-11T21:33:36.796Z,12.62
2023-04-11T21:36:04.014Z,12.68
2023-04-11T21:38:31.112Z,12.63
2023-04-11T21:40:58.156Z,12.47
2023-04-11T21:43:25.335Z,12.46
2023-04-11T21:45:52.329Z,12.43
2023-04-11T21:48:19.563Z,12.44
2023-04-11T21:50:46.626Z,12.55
2023-04-11T21:53:14.140Z,12.35
2023-04-11T21:55:47.488Z,12.21
2023-04-11T21:58:27.939Z,12.02
2023-04-11T22:00:56.488Z,12.02
2023-04-11T22:03:24.186Z,12.03
2023-04-11T22:05:52.431Z,12.07
2023-04-11T22:08:22.356Z,11.83
2023-04-11T22:10:50.879Z,11.80
2023-04-11T22:13:19.432Z,11.82
2023-04-11T22:15:48.777Z,11.72
2023-04-11T22:18:15.934Z,11.73
2023-04-11T22:20:44.230Z,11.66
2023-04-11T22:23:13.078Z,11.64
2023-04-11T22:25:44.284Z,11.49
2023-04-11T22:28:18.413Z,11.43
2023-04-11T22:30:46.642Z,11.41
2023-04-11T22:33:14.032Z,11.52
2023-04-11T22:35:44.807Z,11.58
2023-04-11T22:38:12.142Z,11.36
2023-04-11T22:40:40.202Z,11.46
2023-04-11T22:43:07.387Z,11.28
2023-04-11T22:45:36.003Z,11.31
2023-04-11T22:48:04.636Z,11.30
2023-04-11T22:50:32.832Z,11.25
2023-04-11T22:53:02.554Z,11.17
2023-04-11T22:55:34.387Z,11.19
2023-04-11T22:58:02.867Z,11.08
2023-04-11T23:00:30.425Z,10.97
2023-04-11T23:02:59.793Z,10.74
2023-04-11T23:05:27.055Z,10.94
2023-04-11T23:07:54.193Z,10.70
2023-04-11T23:10:21.168Z,10.63
2023-04-11T23:12:49.424Z,10.78
2023-04-11T23:15:17.462Z,10.62
2023-04-11T23:17:44.980Z,10.52
2023-04-11T23:20:13.182Z,10.46
2023-04-11T23:22:42.480Z,10.57
2023-04-11T23:25:11.658Z,10.49
2023-04-11T23:27:39.626Z,10.50
2023-04-11T23:30:07.786Z,10.53
2023-04-11T23:32:35.106Z,10.54
2023-04-11T23:35:03.062Z,10.45
2023-04-11T23:37:32.015Z,10.37
2023-04-11T23:39:59.679Z,10.37
2023-04-11T23:42:26.827Z,10.42
2023-04-11T23:44:53.883Z,10.46
2023-04-11T23:47:20.928Z,10.43
2023-04-11T23:49:47.893Z,10.41
2023-04-11T23:52:14.956Z,10.40
2023-04-11T23:54:41.913Z,10.27
2023-04-11T23:57:08.908Z,10.27
2023-04-11T23:59:36.400Z,10.27
